sensor_id;sensor_type;location;lat;lon;timestamp;P1;durP1;ratioP1;P2;durP2;ratioP2
3000;SDS011;1510;51.072;6.678;2023-02-28T11:30:29;9.93;;;2.70;;
3000;SDS011;1510;51.072;6.678;2023-02-28T15:10:09;6.03;;;3.07;;
3000;SDS011;1510;51.072;6.678;2023-02-28T15:12:39;7.13;;;3.50;;
3000;SDS011;1510;51.072;6.678;2023-02-28T15:15:14;7.63;;;2.87;;
3000;SDS011;1510;51.072;6.678;2023-02-28T15:17:42;6.60;;;3.23;;
3000;SDS011;1510;51.072;6.678;2023-02-28T15:20:12;7.27;;;2.80;;
3000;SDS011;1510;51.072;6.678;2023-02-28T15:22:42;7.47;;;3.40;;
3000;SDS011;1510;51.072;6.678;2023-02-28T15:25:11;5.93;;;3.10;;
3000;SDS011;1510;51.072;6.678;2023-02-28T15:27:45;7.40;;;3.50;;
3000;SDS011;1510;51.072;6.678;2023-02-28T15:30:15;5.60;;;3.07;;
3000;SDS011;1510;51.072;6.678;2023-02-28T15:32:44;5.90;;;2.90;;
3000;SDS011;1510;51.072;6.678;2023-02-28T15:35:29;6.00;;;3.30;;
3000;SDS011;1510;51.072;6.678;2023-02-28T15:38:00;7.83;;;3.70;;
3000;SDS011;1510;51.072;6.678;2023-02-28T15:40:32;12.70;;;4.30;;
3000;SDS011;1510;51.072;6.678;2023-02-28T15:43:04;8.63;;;3.07;;
3000;SDS011;1510;51.072;6.678;2023-02-28T15:45:37;7.57;;;3.13;;
3000;SDS011;1510;51.072;6.678;2023-02-28T15:48:13;7.93;;;3.47;;
3000;SDS011;1510;51.072;6.678;2023-02-28T15:50:44;7.70;;;3.77;;
3000;SDS011;1510;51.072;6.678;2023-02-28T15:53:14;8.27;;;4.27;;
3000;SDS011;1510;51.072;6.678;2023-02-28T15:55:45;7.30;;;3.00;;
3000;SDS011;1510;51.072;6.678;2023-02-28T15:58:18;7.93;;;3.27;;
3000;SDS011;1510;51.072;6.678;2023-02-28T16:01:00;7.20;;;3.57;;
3000;SDS011;1510;51.072;6.678;2023-02-28T16:03:44;6.90;;;3.20;;
3000;SDS011;1510;51.072;6.678;2023-02-28T16:06:24;8.60;;;3.93;;
3000;SDS011;1510;51.072;6.678;2023-02-28T16:09:04;6.97;;;4.03;;
3000;SDS011;1510;51.072;6.678;2023-02-28T16:11:35;9.30;;;3.90;;
3000;SDS011;1510;51.072;6.678;2023-02-28T16:14:06;9.47;;;4.23;;
3000;SDS011;1510;51.072;6.678;2023-02-28T16:16:41;14.63;;;5.03;;
3000;SDS011;1510;51.072;6.678;2023-02-28T16:19:09;10.00;;;5.00;;
3000;SDS011;1510;51.072;6.678;2023-02-28T16:21:35;18.87;;;6.87;;
3000;SDS011;1510;51.072;6.678;2023-02-28T16:24:02;18.50;;;9.70;;
3000;SDS011;1510;51.072;6.678;2023-02-28T16:26:29;13.80;;;6.80;;
3000;SDS011;1510;51.072;6.678;2023-02-28T16:29:00;6.97;;;3.80;;
3000;SDS011;1510;51.072;6.678;2023-02-28T16:31:28;8.90;;;4.73;;
3000;SDS011;1510;51.072;6.678;2023-02-28T16:33:55;17.30;;;5.77;;
3000;SDS011;1510;51.072;6.678;2023-02-28T16:36:23;12.90;;;5.23;;
3000;SDS011;1510;51.072;6.678;2023-02-28T16:38:54;9.13;;;5.40;;
3000;SDS011;1510;51.072;6.678;2023-02-28T16:41:22;7.00;;;4.40;;
3000;SDS011;1510;51.072;6.678;2023-02-28T16:43:52;6.00;;;2.30;;
3000;SDS011;1510;51.072;6.678;2023-02-28T16:46:25;9.50;;;4.03;;
3000;SDS011;1510;51.072;6.678;2023-02-28T16:48:56;11.00;;;4.13;;
3000;SDS011;1510;51.072;6.678;2023-02-28T16:51:23;6.13;;;3.33;;
3000;SDS011;1510;51.072;6.678;2023-02-28T16:53:50;8.27;;;5.10;;
3000;SDS011;1510;51.072;6.678;2023-02-28T16:56:17;6.53;;;4.03;;
3000;SDS011;1510;51.072;6.678;2023-02-28T16:58:46;16.50;;;4.43;;
3000;SDS011;1510;51.072;6.678;2023-02-28T17:01:14;9.37;;;4.30;;
3000;SDS011;1510;51.072;6.678;2023-02-28T17:03:43;8.57;;;4.50;;
3000;SDS011;1510;51.072;6.678;2023-02-28T17:06:16;10.40;;;5.23;;
3000;SDS011;1510;51.072;6.678;2023-02-28T17:08:46;11.93;;;4.97;;
3000;SDS011;1510;51.072;6.678;2023-02-28T19:59:29;10.93;;;6.87;;
3000;SDS011;1510;51.072;6.678;2023-02-28T20:01:56;11.50;;;6.60;;
3000;SDS011;1510;51.072;6.678;2023-02-28T20:04:23;12.70;;;6.30;;
3000;SDS011;1510;51.072;6.678;2023-02-28T20:06:52;10.10;;;6.73;;
3000;SDS011;1510;51.072;6.678;2023-02-28T20:09:21;10.80;;;6.50;;
3000;SDS011;1510;51.072;6.678;2023-02-28T20:11:50;11.80;;;7.50;;
3000;SDS011;1510;51.072;6.678;2023-02-28T20:14:19;12.30;;;7.20;;
3000;SDS011;1510;51.072;6.678;2023-02-28T20:27:01;10.23;;;6.90;;
3000;SDS011;1510;51.072;6.678;2023-02-28T20:29:32;10.83;;;6.73;;
3000;SDS011;1510;51.072;6.678;2023-02-28T20:32:09;10.60;;;7.43;;
3000;SDS011;1510;51.072;6.678;2023-02-28T20:34:35;10.20;;;6.93;;
3000;SDS011;1510;51.072;6.678;2023-02-28T20:37:03;10.35;;;6.47;;
3000;SDS011;1510;51.072;6.678;2023-02-28T20:39:34;10.50;;;7.10;;
